createdAt,value
2018-08-13T00:01:30.531Z,1.40
2018-08-13T00:04:00.754Z,1.43
2018-08-13T00:06:31.591Z,1.67
2018-08-13T00:09:01.696Z,1.67
2018-08-13T00:11:31.917Z,1.63
2018-08-13T00:14:02.110Z,1.50
2018-08-13T00:16:32.296Z,1.90
2018-08-13T00:19:02.393Z,2.33
2018-08-13T00:21:32.525Z,1.97
2018-08-13T00:24:02.678Z,1.80
2018-08-13T00:26:32.840Z,2.00
2018-08-13T00:29:02.894Z,1.60
2018-08-13T00:31:32.970Z,1.93
2018-08-13T00:34:03.151Z,1.63
2018-08-13T00:36:33.221Z,1.83
2018-08-13T00:39:03.450Z,1.90
2018-08-13T00:41:33.568Z,2.20
2018-08-13T00:44:03.676Z,1.77
2018-08-13T00:46:33.892Z,1.90
2018-08-13T00:49:05.098Z,2.07
2018-08-13T00:51:36.206Z,2.07
2018-08-13T00:54:06.460Z,1.90
2018-08-13T00:56:36.572Z,1.77
2018-08-13T00:59:07.250Z,2.13
2018-08-13T01:01:37.550Z,1.70
2018-08-13T01:04:07.901Z,1.87
2018-08-13T01:06:38.014Z,2.40
2018-08-13T01:09:10.052Z,1.70
2018-08-13T01:11:40.202Z,2.10
2018-08-13T01:14:10.352Z,2.10
2018-08-13T01:16:40.454Z,2.10
2018-08-13T01:19:10.669Z,2.10
2018-08-13T01:21:40.794Z,2.30
2018-08-13T01:24:10.978Z,2.17
2018-08-13T01:26:41.098Z,2.23
2018-08-13T01:29:11.174Z,2.03
2018-08-13T01:31:42.162Z,1.97
2018-08-13T01:34:12.353Z,1.73
2018-08-13T01:36:42.560Z,1.77
2018-08-13T01:39:12.678Z,1.90
2018-08-13T01:41:42.902Z,1.90
2018-08-13T01:44:13.046Z,2.33
2018-08-13T01:46:43.142Z,1.90
2018-08-13T01:49:13.365Z,2.00
2018-08-13T01:51:43.460Z,1.97
2018-08-13T01:54:13.537Z,1.90
2018-08-13T01:56:43.639Z,2.00
2018-08-13T01:59:13.778Z,1.73
2018-08-13T02:01:43.985Z,1.90
2018-08-13T02:04:14.166Z,2.17
2018-08-13T02:06:44.169Z,1.70
2018-08-13T02:09:14.407Z,1.87
2018-08-13T02:11:44.487Z,2.30
2018-08-13T02:14:14.651Z,1.90
2018-08-13T02:16:44.824Z,2.13
2018-08-13T02:19:14.949Z,1.70
2018-08-13T02:21:45.139Z,2.23
2018-08-13T02:24:15.941Z,1.93
2018-08-13T02:26:46.059Z,1.93
2018-08-13T02:29:16.337Z,2.03
2018-08-13T02:31:46.833Z,2.17
2018-08-13T02:34:17.313Z,1.93
2018-08-13T02:36:47.725Z,2.10
2018-08-13T02:39:18.320Z,1.90
2018-08-13T02:41:49.391Z,2.20
2018-08-13T02:44:20.125Z,2.10
2018-08-13T02:46:50.229Z,2.10
2018-08-13T02:49:20.367Z,2.30
2018-08-13T02:51:50.495Z,2.10
2018-08-13T02:54:20.681Z,1.90
2018-08-13T02:56:50.871Z,2.50
2018-08-13T02:59:20.960Z,2.07
2018-08-13T03:01:51.061Z,2.03
2018-08-13T03:04:21.333Z,2.13
2018-08-13T03:06:51.385Z,2.10
2018-08-13T03:09:21.571Z,1.87
2018-08-13T03:11:51.673Z,1.90
2018-08-13T03:14:21.930Z,1.83
2018-08-13T03:16:52.117Z,2.20
2018-08-13T03:19:22.271Z,2.30
2018-08-13T03:21:52.331Z,2.20
2018-08-13T03:24:22.518Z,2.37
2018-08-13T03:26:52.678Z,2.23
2018-08-13T03:29:22.817Z,2.20
2018-08-13T03:31:52.986Z,2.20
2018-08-13T03:34:23.175Z,2.20
2018-08-13T03:36:53.282Z,2.47
2018-08-13T03:39:24.034Z,2.07
2018-08-13T03:41:54.081Z,2.53
2018-08-13T03:44:24.226Z,2.30
2018-08-13T03:46:54.380Z,2.40
2018-08-13T03:49:24.622Z,2.10
2018-08-13T03:51:54.679Z,2.10
2018-08-13T03:54:24.772Z,2.33
2018-08-13T03:56:54.969Z,2.60
2018-08-13T03:59:25.128Z,2.10
2018-08-13T04:01:55.214Z,2.20
2018-08-13T04:04:25.342Z,2.30
2018-08-13T04:06:55.464Z,1.90
2018-08-13T04:09:25.575Z,2.20
2018-08-13T04:11:55.794Z,2.20
2018-08-13T04:14:25.929Z,2.13
2018-08-13T04:17:01.678Z,2.53
2018-08-13T04:19:33.277Z,2.60
2018-08-13T04:22:04.068Z,3.10
2018-08-13T04:24:34.860Z,2.43
2018-08-13T04:27:05.880Z,2.43
2018-08-13T04:29:36.056Z,2.57
2018-08-13T04:32:06.622Z,2.30
2018-08-13T04:34:36.922Z,2.77
2018-08-13T04:37:07.138Z,2.40
2018-08-13T04:39:37.260Z,2.90
2018-08-13T04:42:07.394Z,2.30
2018-08-13T04:44:38.172Z,2.63
2018-08-13T04:47:08.468Z,2.37
2018-08-13T04:49:38.588Z,2.63
2018-08-13T04:52:09.375Z,2.57
2018-08-13T04:54:39.386Z,2.37
2018-08-13T04:57:09.523Z,2.67
2018-08-13T04:59:39.745Z,3.27
2018-08-13T05:02:09.896Z,3.20
2018-08-13T05:04:41.222Z,2.30
2018-08-13T05:07:11.327Z,2.67
2018-08-13T05:09:41.546Z,2.77
2018-08-13T05:12:11.766Z,2.70
2018-08-13T05:14:55.834Z,2.37
2018-08-13T05:17:25.998Z,2.50
2018-08-13T05:20:09.134Z,2.60
2018-08-13T05:22:39.218Z,3.43
2018-08-13T05:25:10.910Z,2.73
2018-08-13T05:27:41.702Z,2.70
2018-08-13T05:30:13.256Z,2.33
2018-08-13T05:32:43.509Z,2.03
2018-08-13T05:35:14.156Z,2.33
2018-08-13T05:37:45.278Z,2.50
2018-08-13T05:40:15.442Z,2.60
2018-08-13T05:42:45.597Z,2.70
2018-08-13T05:45:16.120Z,2.27
2018-08-13T05:47:46.239Z,2.20
2018-08-13T05:50:16.416Z,2.50
2018-08-13T05:52:46.702Z,2.33
2018-08-13T05:55:16.734Z,2.10
2018-08-13T05:57:46.970Z,2.00
2018-08-13T06:00:17.242Z,1.53
2018-08-13T06:02:47.340Z,1.77
2018-08-13T06:05:17.576Z,1.83
2018-08-13T06:07:47.691Z,2.00
2018-08-13T06:10:17.962Z,1.80
2018-08-13T06:12:48.083Z,1.90
2018-08-13T06:15:18.298Z,1.60
2018-08-13T06:17:48.451Z,1.40
2018-08-13T06:20:18.605Z,1.20
2018-08-13T06:22:48.791Z,1.40
2018-08-13T06:25:19.061Z,1.07
2018-08-13T06:27:49.891Z,1.10
2018-08-13T06:30:20.062Z,1.10
2018-08-13T06:32:50.243Z,0.87
2018-08-13T06:35:20.373Z,1.03
2018-08-13T06:37:50.444Z,0.80
2018-08-13T06:40:20.676Z,0.97
2018-08-13T06:42:50.691Z,0.90
2018-08-13T06:45:21.174Z,0.80
2018-08-13T06:47:51.283Z,0.80
2018-08-13T06:50:21.418Z,0.80
2018-08-13T06:52:51.599Z,0.80
2018-08-13T06:55:21.773Z,0.60
2018-08-13T06:57:51.821Z,0.60
2018-08-13T07:00:22.007Z,0.80
2018-08-13T07:02:52.277Z,0.60
2018-08-13T07:05:22.691Z,0.50
2018-08-13T07:07:52.871Z,0.53
2018-08-13T07:10:22.989Z,0.50
2018-08-13T07:12:53.067Z,0.67
2018-08-13T07:15:23.219Z,0.80
2018-08-13T07:17:53.281Z,0.80
2018-08-13T07:20:23.424Z,0.70
2018-08-13T07:22:53.631Z,0.80
2018-08-13T07:25:24.673Z,1.13
2018-08-13T07:27:54.869Z,0.83
2018-08-13T07:30:24.996Z,0.87
2018-08-13T07:32:55.161Z,1.13
2018-08-13T07:35:25.310Z,0.77
2018-08-13T07:37:55.363Z,0.80
2018-08-13T07:40:25.498Z,0.67
2018-08-13T07:42:55.973Z,0.73
2018-08-13T07:45:26.024Z,1.00
2018-08-13T07:47:56.145Z,1.27
2018-08-13T07:50:26.266Z,1.20
2018-08-13T07:52:57.003Z,1.00
2018-08-13T07:55:27.222Z,0.80
2018-08-13T07:57:57.442Z,0.70
2018-08-13T08:00:27.667Z,0.70
2018-08-13T08:02:57.887Z,0.77
2018-08-13T08:05:28.053Z,0.70
2018-08-13T08:07:58.159Z,0.63
2018-08-13T08:10:28.322Z,0.70
2018-08-13T08:12:58.397Z,0.73
2018-08-13T08:15:28.585Z,0.90
2018-08-13T08:17:58.732Z,1.03
2018-08-13T08:20:28.962Z,1.20
2018-08-13T08:22:59.187Z,1.33
2018-08-13T08:25:29.496Z,1.00
2018-08-13T08:28:00.770Z,1.30
2018-08-13T08:30:31.075Z,1.23
2018-08-13T08:33:01.189Z,1.30
2018-08-13T08:35:31.488Z,1.40
2018-08-13T08:38:02.344Z,1.30
2018-08-13T08:40:33.104Z,1.10
2018-08-13T08:43:03.919Z,1.30
2018-08-13T08:45:34.250Z,1.10
2018-08-13T08:48:05.200Z,1.40
2018-08-13T08:50:35.498Z,1.67
2018-08-13T08:53:06.126Z,1.60
2018-08-13T08:55:36.393Z,1.83
2018-08-13T08:58:06.646Z,1.30
2018-08-13T09:00:36.756Z,1.40
2018-08-13T09:03:07.188Z,1.30
2018-08-13T09:05:37.376Z,1.30
2018-08-13T09:08:07.493Z,1.57
2018-08-13T09:10:37.614Z,1.60
2018-08-13T09:13:07.703Z,1.90
2018-08-13T09:15:37.837Z,1.70
2018-08-13T09:18:24.688Z,1.97
2018-08-13T09:21:11.683Z,1.90
2018-08-13T09:23:58.962Z,1.73
2018-08-13T09:26:46.076Z,1.27
2018-08-13T09:29:33.470Z,1.90
2018-08-13T09:32:30.590Z,1.67
2018-08-13T09:35:34.236Z,1.90
2018-08-13T09:38:04.351Z,1.40
2018-08-13T09:40:34.887Z,1.60
2018-08-13T09:43:05.208Z,1.50
2018-08-13T09:45:35.448Z,1.90
2018-08-13T09:48:06.526Z,1.70
2018-08-13T09:50:36.652Z,1.87
2018-08-13T09:53:07.139Z,2.37
2018-08-13T09:55:37.230Z,2.10
2018-08-13T09:58:08.453Z,1.97
2018-08-13T10:00:43.794Z,1.80
2018-08-13T10:03:13.912Z,1.70
2018-08-13T10:05:44.432Z,2.43
2018-08-13T10:08:14.631Z,2.17
2018-08-13T10:10:44.865Z,1.83
2018-08-13T10:13:15.110Z,2.30
2018-08-13T10:15:45.283Z,2.33
2018-08-13T10:18:15.493Z,2.20
2018-08-13T10:20:45.611Z,1.83
2018-08-13T10:23:15.733Z,1.93
2018-08-13T10:25:45.985Z,2.20
2018-08-13T10:28:16.289Z,1.73
2018-08-13T10:30:46.531Z,2.23
2018-08-13T10:33:16.751Z,1.83
2018-08-13T10:35:46.784Z,2.10
2018-08-13T10:38:16.896Z,2.03
2018-08-13T10:40:47.116Z,2.17
2018-08-13T10:43:17.309Z,2.43
2018-08-13T10:45:47.605Z,2.00
2018-08-13T10:48:17.801Z,2.30
2018-08-13T10:50:47.945Z,2.30
2018-08-13T10:53:18.022Z,1.90
2018-08-13T10:55:48.269Z,2.00
2018-08-13T10:58:18.491Z,2.10
2018-08-13T11:00:48.597Z,1.93
2018-08-13T11:03:18.733Z,1.63
2018-08-13T11:05:48.738Z,1.90
2018-08-13T11:08:26.843Z,2.27
2018-08-13T11:10:57.709Z,2.20
2018-08-13T11:13:27.789Z,1.63
2018-08-13T11:15:58.003Z,1.43
2018-08-13T11:18:28.176Z,1.97
2018-08-13T11:20:58.500Z,1.70
2018-08-13T11:23:29.947Z,2.13
2018-08-13T11:26:00.407Z,2.17
2018-08-13T11:28:31.376Z,1.77
2018-08-13T11:31:01.931Z,2.23
2018-08-13T11:33:32.558Z,1.80
2018-08-13T11:36:02.715Z,2.47
2018-08-13T11:38:32.936Z,2.03
2018-08-13T11:41:03.060Z,2.43
2018-08-13T11:43:33.167Z,2.40
2018-08-13T11:46:03.206Z,2.07
2018-08-13T11:48:33.380Z,2.57
2018-08-13T11:51:03.614Z,2.50
2018-08-13T11:53:33.715Z,2.73
2018-08-13T11:56:03.819Z,2.30
2018-08-13T11:58:34.062Z,2.63
2018-08-13T12:01:04.211Z,2.23
2018-08-13T12:03:34.298Z,2.90
2018-08-13T12:06:04.505Z,2.50
2018-08-13T12:08:34.696Z,2.50
2018-08-13T12:11:04.876Z,3.27
2018-08-13T12:13:35.017Z,2.33
2018-08-13T12:16:05.245Z,3.00
2018-08-13T12:18:35.475Z,2.57
2018-08-13T12:21:05.643Z,2.50
2018-08-13T12:23:36.073Z,2.60
2018-08-13T12:26:06.529Z,2.40
2018-08-13T12:28:36.819Z,2.00
2018-08-13T12:31:07.234Z,2.37
2018-08-13T12:33:37.363Z,2.40
2018-08-13T12:36:07.567Z,2.00
2018-08-13T12:38:37.789Z,2.60
2018-08-13T12:41:08.047Z,2.60
2018-08-13T12:43:38.101Z,2.07
2018-08-13T12:46:08.564Z,2.33
2018-08-13T12:48:38.615Z,2.20
2018-08-13T12:51:08.878Z,2.17
2018-08-13T12:53:38.995Z,2.30
2018-08-13T12:56:09.163Z,2.30
2018-08-13T12:58:39.456Z,2.13
2018-08-13T13:01:09.541Z,2.00
2018-08-13T13:03:40.871Z,1.50
2018-08-13T13:06:11.698Z,2.00
2018-08-13T13:08:41.916Z,1.63
2018-08-13T13:11:12.124Z,2.00
2018-08-13T13:13:42.239Z,1.97
2018-08-13T13:16:12.430Z,2.30
2018-08-13T13:18:42.596Z,1.70
2018-08-13T13:21:12.600Z,1.60
2018-08-13T13:23:42.776Z,1.70
2018-08-13T13:26:12.946Z,1.23
2018-08-13T13:28:43.388Z,1.77
2018-08-13T13:31:13.516Z,1.60
2018-08-13T13:33:43.964Z,1.63
2018-08-13T13:36:14.060Z,1.80
2018-08-13T13:38:44.280Z,1.50
2018-08-13T13:41:14.504Z,2.00
2018-08-13T13:43:44.624Z,1.93
2018-08-13T13:46:14.776Z,1.90
2018-08-13T13:48:44.930Z,1.60
2018-08-13T13:51:15.042Z,1.60
2018-08-13T13:53:45.241Z,1.60
2018-08-13T13:56:15.348Z,1.67
2018-08-13T13:58:45.432Z,1.40
2018-08-13T14:01:15.601Z,1.60
2018-08-13T14:03:45.682Z,1.50
2018-08-13T14:06:15.827Z,2.00
2018-08-13T14:08:46.602Z,1.77
2018-08-13T14:11:16.780Z,1.33
2018-08-13T14:13:47.237Z,1.40
2018-08-13T14:16:17.345Z,1.33
2018-08-13T14:18:47.481Z,1.60
2018-08-13T14:21:17.675Z,1.40
2018-08-13T14:23:47.820Z,1.60
2018-08-13T14:26:18.055Z,1.90
2018-08-13T14:28:48.228Z,1.80
2018-08-13T14:31:18.409Z,1.60
2018-08-13T14:33:48.766Z,1.93
2018-08-13T14:36:18.867Z,1.70
2018-08-13T14:38:49.163Z,1.40
2018-08-13T14:41:19.440Z,1.67
2018-08-13T14:43:49.701Z,1.30
2018-08-13T14:46:19.956Z,1.97
2018-08-13T14:48:50.182Z,1.80
2018-08-13T14:51:20.357Z,1.50
2018-08-13T14:53:50.462Z,1.50
2018-08-13T14:56:20.683Z,1.60
2018-08-13T14:58:50.963Z,1.73
2018-08-13T15:01:21.140Z,1.47
2018-08-13T15:03:51.442Z,1.20
2018-08-13T15:06:21.612Z,1.50
2018-08-13T15:08:52.344Z,1.53
2018-08-13T15:11:26.141Z,1.53
2018-08-13T15:13:56.820Z,1.40
2018-08-13T15:16:26.918Z,1.40
2018-08-13T15:18:57.397Z,1.43
2018-08-13T15:21:28.681Z,1.77
2018-08-13T15:23:58.935Z,1.50
2018-08-13T15:26:29.216Z,1.50
2018-08-13T15:28:59.633Z,1.33
2018-08-13T15:31:29.752Z,1.30
2018-08-13T15:33:59.989Z,1.43
2018-08-13T15:36:30.570Z,1.50
2018-08-13T15:39:00.707Z,1.67
2018-08-13T15:41:31.515Z,1.63
2018-08-13T15:44:01.708Z,1.57
2018-08-13T15:46:31.951Z,1.27
2018-08-13T15:49:02.260Z,1.67
2018-08-13T15:51:33.073Z,1.40
2018-08-13T15:54:03.178Z,1.10
2018-08-13T15:56:33.463Z,1.27
2018-08-13T15:59:04.205Z,1.30
2018-08-13T16:01:34.293Z,1.40
2018-08-13T16:04:04.571Z,1.10
2018-08-13T16:06:35.162Z,0.90
2018-08-13T16:09:07.751Z,0.97
2018-08-13T16:11:38.064Z,1.20
2018-08-13T16:14:08.451Z,1.20
2018-08-13T16:16:38.649Z,1.40
2018-08-13T16:19:08.898Z,1.83
2018-08-13T16:21:39.021Z,1.30
2018-08-13T16:24:09.188Z,0.90
2018-08-13T16:26:39.497Z,1.10
2018-08-13T16:29:09.518Z,1.23
2018-08-13T16:31:39.756Z,1.00
2018-08-13T16:34:10.048Z,1.07
2018-08-13T16:36:40.210Z,0.97
2018-08-13T16:39:12.411Z,1.03
2018-08-13T16:41:42.476Z,1.10
2018-08-13T16:44:12.721Z,0.70
2018-08-13T16:46:42.806Z,0.73
2018-08-13T16:49:12.936Z,0.60
2018-08-13T16:51:43.230Z,0.73
2018-08-13T16:54:13.450Z,0.90
2018-08-13T16:56:43.610Z,2.53
2018-08-13T16:59:13.790Z,1.20
2018-08-13T17:01:43.994Z,1.37
2018-08-13T17:04:14.237Z,0.93
2018-08-13T17:06:44.384Z,0.90
2018-08-13T17:09:14.628Z,1.37
2018-08-13T17:11:44.962Z,1.67
2018-08-13T17:14:15.613Z,1.10
2018-08-13T17:16:47.412Z,1.07
2018-08-13T17:19:17.710Z,0.93
2018-08-13T17:21:47.905Z,0.93
2018-08-13T17:24:18.148Z,0.80
2018-08-13T17:26:48.330Z,1.00
2018-08-13T17:29:18.387Z,0.83
2018-08-13T17:31:48.544Z,0.80
2018-08-13T17:34:18.737Z,0.90
2018-08-13T17:36:48.950Z,0.80
2018-08-13T17:39:19.226Z,1.00
2018-08-13T17:41:49.320Z,1.10
2018-08-13T17:44:19.469Z,1.00
2018-08-13T17:46:49.715Z,1.13
2018-08-13T17:49:20.360Z,0.80
2018-08-13T17:51:50.382Z,0.70
2018-08-13T17:54:20.871Z,0.80
2018-08-13T17:56:50.948Z,0.80
2018-08-13T17:59:21.184Z,0.70
2018-08-13T18:01:51.652Z,0.70
2018-08-13T18:04:22.734Z,0.80
2018-08-13T18:06:52.808Z,0.60
2018-08-13T18:09:22.916Z,0.70
2018-08-13T18:11:53.121Z,0.80
2018-08-13T18:14:23.660Z,0.50
2018-08-13T18:16:54.255Z,0.60
2018-08-13T18:19:24.421Z,0.70
2018-08-13T18:21:54.522Z,0.60
2018-08-13T18:24:24.688Z,0.80
2018-08-13T18:26:54.841Z,0.70
2018-08-13T18:29:25.078Z,0.70
2018-08-13T18:31:55.240Z,0.70
2018-08-13T18:34:25.355Z,0.90
2018-08-13T18:36:56.237Z,0.70
2018-08-13T18:39:26.470Z,0.70
2018-08-13T18:41:56.613Z,0.70
2018-08-13T18:44:26.835Z,0.60
2018-08-13T18:46:57.611Z,0.70
2018-08-13T18:49:27.664Z,0.70
2018-08-13T18:51:57.785Z,0.70
2018-08-13T18:54:27.885Z,0.60
2018-08-13T18:56:58.095Z,0.60
2018-08-13T18:59:28.259Z,0.60
2018-08-13T19:01:58.646Z,0.87
2018-08-13T19:04:29.296Z,0.50
2018-08-13T19:06:59.667Z,0.50
2018-08-13T19:09:29.887Z,0.47
2018-08-13T19:12:00.114Z,0.60
2018-08-13T19:14:30.318Z,0.50
2018-08-13T19:17:00.377Z,0.50
2018-08-13T19:19:30.723Z,0.60
2018-08-13T19:22:00.893Z,0.60
2018-08-13T19:24:31.361Z,0.43
2018-08-13T19:27:01.455Z,0.77
2018-08-13T19:29:31.650Z,1.00
2018-08-13T19:32:01.909Z,1.93
2018-08-13T19:34:32.568Z,4.03
2018-08-13T19:37:02.729Z,3.10
2018-08-13T19:39:33.030Z,3.50
2018-08-13T19:42:03.277Z,2.50
2018-08-13T19:44:34.811Z,2.20
2018-08-13T19:47:05.101Z,2.00
2018-08-13T19:49:35.400Z,1.93
2018-08-13T19:52:06.478Z,1.80
2018-08-13T19:54:37.165Z,2.10
2018-08-13T19:57:07.521Z,2.37
2018-08-13T19:59:37.739Z,2.53
2018-08-13T20:02:08.486Z,2.33
2018-08-13T20:04:39.247Z,1.77
2018-08-13T20:07:10.533Z,2.13
2018-08-13T20:09:40.698Z,2.03
2018-08-13T20:12:10.921Z,2.33
2018-08-13T20:14:41.050Z,2.00
2018-08-13T20:17:11.309Z,2.23
2018-08-13T20:19:41.493Z,2.10
2018-08-13T20:22:15.704Z,2.20
2018-08-13T20:24:46.249Z,2.13
2018-08-13T20:27:16.905Z,2.30
2018-08-13T20:29:47.039Z,2.50
2018-08-13T20:32:17.930Z,2.63
2018-08-13T20:34:48.131Z,2.50
2018-08-13T20:37:18.273Z,2.40
2018-08-13T20:39:48.475Z,2.50
2018-08-13T20:42:19.277Z,2.33
2018-08-13T20:44:49.565Z,2.10
2018-08-13T20:47:19.723Z,2.07
2018-08-13T20:49:49.963Z,1.90
2018-08-13T20:52:20.185Z,2.23
2018-08-13T20:54:51.258Z,2.30
2018-08-13T20:57:21.348Z,2.10
2018-08-13T20:59:51.623Z,2.20
2018-08-13T21:02:21.856Z,1.90
2018-08-13T21:04:52.094Z,2.10
2018-08-13T21:07:22.223Z,1.93
2018-08-13T21:09:53.385Z,2.00
2018-08-13T21:12:23.514Z,2.30
2018-08-13T21:14:53.732Z,2.07
2018-08-13T21:17:23.833Z,2.27
2018-08-13T21:20:06.713Z,2.50
2018-08-13T21:22:37.538Z,2.00
2018-08-13T21:25:11.979Z,2.10
2018-08-13T21:27:43.053Z,1.93
2018-08-13T21:30:13.308Z,2.43
2018-08-13T21:32:44.085Z,2.20
2018-08-13T21:35:22.057Z,2.33
2018-08-13T21:37:52.518Z,2.40
2018-08-13T21:40:22.614Z,2.53
2018-08-13T21:42:52.872Z,2.87
2018-08-13T21:45:22.832Z,2.60
2018-08-13T21:47:53.001Z,2.73
2018-08-13T21:50:23.579Z,2.43
2018-08-13T21:52:53.788Z,2.50
2018-08-13T21:55:23.853Z,2.57
2018-08-13T21:57:54.071Z,2.83
2018-08-13T22:00:30.368Z,2.57
2018-08-13T22:03:02.743Z,2.80
2018-08-13T22:05:32.923Z,2.80
2018-08-13T22:08:04.059Z,2.80
2018-08-13T22:10:34.226Z,2.60
2018-08-13T22:13:04.406Z,2.83
2018-08-13T22:15:34.670Z,2.63
2018-08-13T22:18:06.119Z,2.63
2018-08-13T22:20:37.610Z,2.90
2018-08-13T22:23:08.706Z,2.57
2018-08-13T22:25:42.889Z,2.90
2018-08-13T22:28:16.115Z,2.50
2018-08-13T22:30:46.624Z,2.80
2018-08-13T22:33:16.819Z,2.20
2018-08-13T22:35:46.968Z,2.40
2018-08-13T22:38:17.167Z,2.53
2018-08-13T22:40:47.376Z,2.60
2018-08-13T22:43:17.553Z,2.20
2018-08-13T22:45:47.689Z,2.90
2018-08-13T22:48:17.781Z,2.43
2018-08-13T22:50:47.897Z,3.10
2018-08-13T22:53:18.096Z,2.77
2018-08-13T22:55:48.352Z,2.93
2018-08-13T22:58:18.522Z,2.47
2018-08-13T23:00:48.783Z,2.97
2018-08-13T23:03:18.941Z,2.87
2018-08-13T23:05:49.152Z,2.63
2018-08-13T23:08:19.569Z,2.90
2018-08-13T23:10:49.724Z,2.80
2018-08-13T23:13:19.930Z,2.73
2018-08-13T23:15:50.104Z,2.73
2018-08-13T23:18:20.174Z,2.63
2018-08-13T23:20:50.308Z,2.30
2018-08-13T23:23:20.380Z,2.50
2018-08-13T23:25:50.454Z,2.87
2018-08-13T23:28:20.591Z,2.20
2018-08-13T23:30:50.812Z,2.03
2018-08-13T23:33:20.942Z,2.17
2018-08-13T23:35:51.017Z,2.40
2018-08-13T23:38:21.257Z,2.17
2018-08-13T23:40:51.588Z,2.17
2018-08-13T23:43:21.752Z,2.13
2018-08-13T23:45:51.947Z,1.87
2018-08-13T23:48:22.086Z,1.60
2018-08-13T23:50:52.847Z,2.20
2018-08-13T23:53:23.214Z,2.07
2018-08-13T23:55:53.500Z,2.10
2018-08-13T23:58:23.675Z,1.90
